createdAt,value
2023-03-21T00:05:16.930Z,4.3
2023-03-21T00:11:01.955Z,4.1
2023-03-21T00:16:46.448Z,4.1
2023-03-21T00:22:30.360Z,4.1
2023-03-21T00:28:14.131Z,4.3
2023-03-21T00:33:58.038Z,4.5
2023-03-21T00:39:42.097Z,4.1
2023-03-21T00:45:25.886Z,4.7
2023-03-21T00:51:12.939Z,4.4
2023-03-21T00:56:56.651Z,4.1
2023-03-21T01:02:41.954Z,4.2
2023-03-21T01:08:50.911Z,4
2023-03-21T01:14:32.025Z,4.3
2023-03-21T01:20:16.265Z,4.4
2023-03-21T01:25:59.991Z,4.5
2023-03-21T01:31:44.001Z,4.5
2023-03-21T01:37:27.898Z,4.3
2023-03-21T01:43:16.923Z,4.9
2023-03-21T01:49:03.945Z,4.5
2023-03-21T01:54:48.607Z,4.3
2023-03-21T02:00:32.604Z,4.1
2023-03-21T02:06:18.152Z,4.6
2023-03-21T02:12:02.191Z,4.3
2023-03-21T02:17:50.923Z,4.6
2023-03-21T02:23:49.064Z,4.2
2023-03-21T02:29:44.274Z,4.3
2023-03-21T02:35:50.604Z,4.3
2023-03-21T02:41:44.202Z,4.4
2023-03-21T02:47:30.703Z,4.1
2023-03-21T02:53:16.466Z,4.1
2023-03-21T02:59:00.683Z,4.4
2023-03-21T03:04:45.414Z,4.4
2023-03-21T03:10:37.151Z,4.7
2023-03-21T03:16:27.802Z,4.6
2023-03-21T03:22:12.536Z,4.6
2023-03-21T03:27:58.198Z,4.5
2023-03-21T03:33:43.386Z,4.6
2023-03-21T03:39:31.568Z,4.4
2023-03-21T03:45:15.803Z,4.3
2023-03-21T03:51:02.252Z,4.7
2023-03-21T03:56:46.377Z,4.9
2023-03-21T04:02:30.125Z,4.5
2023-03-21T04:08:14.051Z,4.4
2023-03-21T04:13:57.871Z,4.6
2023-03-21T04:19:41.651Z,4.7
2023-03-21T04:25:34.995Z,4.4
2023-03-21T04:31:28.022Z,4.6
2023-03-21T04:37:11.833Z,4.2
2023-03-21T04:42:55.592Z,4.5
2023-03-21T04:48:39.304Z,4.6
2023-03-21T04:54:23.101Z,4
2023-03-21T05:00:09.131Z,4.2
2023-03-21T05:05:52.789Z,4
2023-03-21T05:11:37.947Z,4
2023-03-21T05:17:22.631Z,4.2
2023-03-21T05:23:06.153Z,4
2023-03-21T05:28:49.995Z,4
2023-03-21T05:34:33.699Z,4.1
2023-03-21T05:40:17.303Z,3.9
2023-03-21T05:46:01.014Z,4.2
2023-03-21T05:51:44.608Z,4.1
2023-03-21T05:57:28.734Z,3.8
2023-03-21T06:03:12.473Z,4.3
2023-03-21T06:08:56.452Z,4.1
2023-03-21T06:14:40.201Z,3.7
2023-03-21T06:20:24.095Z,3.7
2023-03-21T06:26:08.099Z,3.8
2023-03-21T06:31:51.621Z,3.9
2023-03-21T06:37:35.542Z,3.9
2023-03-21T06:43:19.378Z,3.6
2023-03-21T06:49:02.811Z,3.9
2023-03-21T06:54:46.467Z,3.9
2023-03-21T07:00:30.636Z,3.8
2023-03-21T07:06:14.588Z,3.7
2023-03-21T07:11:58.176Z,3.7
2023-03-21T07:17:41.864Z,3.7
2023-03-21T07:23:26.806Z,4.1
2023-03-21T07:29:11.651Z,4.2
2023-03-21T07:34:55.572Z,4.4
2023-03-21T07:40:40.212Z,4.6
2023-03-21T07:46:24.330Z,4.5
2023-03-21T07:52:08.222Z,3.8
2023-03-21T07:57:51.962Z,4.2
2023-03-21T08:03:35.956Z,4.2
2023-03-21T08:09:19.872Z,3.9
2023-03-21T08:15:03.594Z,3.6
2023-03-21T08:20:48.220Z,4.2
2023-03-21T08:26:31.966Z,3.7
2023-03-21T08:32:15.690Z,3.9
2023-03-21T08:37:59.390Z,3.6
2023-03-21T08:43:43.022Z,3.6
2023-03-21T08:49:26.687Z,3.7
2023-03-21T08:55:11.115Z,3.6
2023-03-21T09:00:54.878Z,3.4
2023-03-21T09:06:38.517Z,3.5
2023-03-21T09:12:22.114Z,3.5
2023-03-21T09:18:05.806Z,3.6
2023-03-21T09:23:50.767Z,3.4
2023-03-21T09:29:34.464Z,3.2
2023-03-21T09:35:18.754Z,3.2
2023-03-21T09:41:06.368Z,3.1
2023-03-21T09:46:52.348Z,3
2023-03-21T09:52:41.363Z,3
2023-03-21T09:58:27.286Z,3.3
2023-03-21T10:04:14.376Z,2.8
2023-03-21T10:09:59.302Z,2.9
2023-03-21T10:15:43.126Z,2.8
2023-03-21T10:21:58.905Z,2.8
2023-03-21T10:27:32.223Z,2.8
2023-03-21T10:33:18.073Z,2.8
2023-03-21T10:39:03.649Z,2.7
2023-03-21T10:44:48.160Z,2.7
2023-03-21T10:50:33.071Z,2.5
2023-03-21T10:56:17.023Z,2.6
2023-03-21T11:02:00.772Z,2.5
2023-03-21T11:07:45.958Z,2.4
2023-03-21T11:13:35.536Z,2.2
2023-03-21T11:19:20.654Z,2.5
2023-03-21T11:25:07.165Z,2.2
2023-03-21T11:31:00.636Z,2.2
2023-03-21T11:36:44.626Z,2.3
2023-03-21T11:42:35.179Z,2.2
2023-03-21T11:48:19.049Z,2.3
2023-03-21T11:54:09.229Z,2
2023-03-21T11:59:57.994Z,2.1
2023-03-21T12:05:45.126Z,2.1
2023-03-21T12:11:32.793Z,2
2023-03-21T12:17:23.466Z,2
2023-03-21T12:23:17.454Z,2
2023-03-21T12:29:12.320Z,2
2023-03-21T12:35:09.466Z,2.1
2023-03-21T12:41:04.411Z,2.3
2023-03-21T12:46:51.331Z,2
2023-03-21T12:52:36.939Z,2.1
2023-03-21T12:58:23.747Z,2.2
2023-03-21T13:04:17.163Z,2.1
2023-03-21T13:10:01.078Z,2
2023-03-21T13:15:52.446Z,1.8
2023-03-21T13:21:43.154Z,2.1
2023-03-21T13:27:29.898Z,1.9
2023-03-21T13:33:15.363Z,2
2023-03-21T13:39:02.422Z,1.8
2023-03-21T13:44:52.198Z,2.1
2023-03-21T13:50:43.907Z,1.9
2023-03-21T13:56:28.263Z,1.8
2023-03-21T14:02:34.331Z,1.8
2023-03-21T14:08:37.046Z,1.8
2023-03-21T14:14:20.707Z,1.8
2023-03-21T14:20:11.359Z,1.8
2023-03-21T14:25:55.679Z,1.8
2023-03-21T14:31:40.445Z,1.7
2023-03-21T14:37:35.232Z,1.9
2023-03-21T14:43:19.881Z,2.1
2023-03-21T14:49:15.079Z,1.8
2023-03-21T14:55:01.271Z,2.1
2023-03-21T15:00:45.372Z,1.8
2023-03-21T15:06:29.091Z,2.1
2023-03-21T15:12:15.615Z,2
2023-03-21T15:18:03.590Z,2
2023-03-21T15:23:48.431Z,8.6
2023-03-21T15:29:34.678Z,7.5
2023-03-21T15:35:22.115Z,6.5
2023-03-21T15:41:27.490Z,6.5
2023-03-21T15:47:16.123Z,6.2
2023-03-21T15:53:00.865Z,5.9
2023-03-21T15:58:46.086Z,5.1
2023-03-21T16:04:29.769Z,5.1
2023-03-21T16:10:24.964Z,5.6
2023-03-21T16:16:09.020Z,6
2023-03-21T16:21:52.414Z,5.6
2023-03-21T16:27:36.397Z,5.3
2023-03-21T16:33:20.180Z,5.2
2023-03-21T16:39:04.076Z,4.8
2023-03-21T16:44:47.795Z,4.9
2023-03-21T16:50:32.754Z,4.6
2023-03-21T16:56:19.961Z,4.2
2023-03-21T17:02:03.996Z,3.7
2023-03-21T17:07:47.812Z,3.9
2023-03-21T17:13:31.450Z,3.5
2023-03-21T17:19:17.327Z,3.3
2023-03-21T17:25:01.032Z,3.3
2023-03-21T17:30:45.550Z,3.3
2023-03-21T17:36:31.979Z,3.1
2023-03-21T17:42:16.730Z,3.4
2023-03-21T17:48:01.394Z,3.3
2023-03-21T17:53:45.860Z,3.1
2023-03-21T17:59:29.552Z,3
2023-03-21T18:05:13.540Z,3
2023-03-21T18:10:57.307Z,3.3
2023-03-21T18:16:41.284Z,3.2
2023-03-21T18:22:25.483Z,3.1
2023-03-21T18:28:14.228Z,3
2023-03-21T18:34:02.415Z,2.8
2023-03-21T18:39:46.375Z,3.2
2023-03-21T18:45:30.015Z,3.2
2023-03-21T18:51:13.570Z,3.3
2023-03-21T19:03:21.374Z,3.4
2023-03-21T19:09:09.725Z,3.4
2023-03-21T19:14:53.880Z,3.6
2023-03-21T19:20:38.125Z,3.5
2023-03-21T19:26:22.340Z,3.4
2023-03-21T19:32:06.651Z,3.4
2023-03-21T19:37:50.865Z,3.5
2023-03-21T19:43:35.642Z,3.6
2023-03-21T19:49:20.295Z,3.5
2023-03-21T19:55:10.982Z,3.5
2023-03-21T20:00:54.653Z,3.6
2023-03-21T20:06:39.103Z,3.7
2023-03-21T20:12:22.859Z,3.4
2023-03-21T20:18:06.491Z,3.6
2023-03-21T20:23:50.275Z,3.7
2023-03-21T20:30:08.971Z,3.9
2023-03-21T20:41:42.152Z,3.8
2023-03-21T20:47:25.855Z,3.6
2023-03-21T20:53:09.756Z,3.8
2023-03-21T20:59:15.593Z,3.7
2023-03-21T21:12:02.819Z,4
2023-03-21T21:17:54.412Z,3.6
2023-03-21T21:23:13.479Z,3.9
2023-03-21T21:28:57.228Z,3.8
2023-03-21T21:34:40.976Z,3.7
2023-03-21T21:40:25.032Z,3.8
2023-03-21T21:46:08.921Z,3.8
2023-03-21T21:51:52.719Z,3.9
2023-03-21T21:57:36.832Z,3.7
2023-03-21T22:03:20.623Z,3.4
2023-03-21T22:09:05.528Z,3.5
2023-03-21T22:14:49.544Z,3.6
2023-03-21T22:20:33.278Z,3.3
2023-03-21T22:26:17.472Z,3.4
2023-03-21T22:32:01.651Z,3.2
2023-03-21T22:37:45.617Z,3.3
2023-03-21T22:43:29.703Z,3.2
2023-03-21T22:49:13.351Z,3.4
2023-03-21T22:54:57.062Z,3.2
2023-03-21T23:00:42.597Z,2.9
2023-03-21T23:06:26.473Z,3.1
2023-03-21T23:12:10.368Z,3.2
2023-03-21T23:17:55.041Z,3.4
2023-03-21T23:23:38.690Z,3.3
2023-03-21T23:29:22.380Z,3.2
2023-03-21T23:35:06.523Z,3
2023-03-21T23:40:50.336Z,3
2023-03-21T23:46:34.176Z,3
2023-03-21T23:52:18.029Z,3.4
2023-03-21T23:58:01.710Z,3.1
